sensor_id;sensor_type;location;lat;lon;timestamp;temperature;humidity
46283;DHT22;32017;43.700;11.820;2022-08-05T00:00:40;21.90;99.90
46283;DHT22;32017;43.700;11.820;2022-08-05T00:02:47;21.80;99.90
46283;DHT22;32017;43.700;11.820;2022-08-05T00:04:52;21.70;99.90
46283;DHT22;32017;43.700;11.820;2022-08-05T00:06:56;21.50;99.90
46283;DHT22;32017;43.700;11.820;2022-08-05T00:09:03;21.60;99.90
46283;DHT22;32017;43.700;11.820;2022-08-05T00:11:07;21.60;99.90
46283;DHT22;32017;43.700;11.820;2022-08-05T00:13:23;21.50;99.90
46283;DHT22;32017;43.700;11.820;2022-08-05T00:15:40;21.30;99.90
46283;DHT22;32017;43.700;11.820;2022-08-05T00:17:57;21.10;99.90
46283;DHT22;32017;43.700;11.820;2022-08-05T00:19:59;21.00;99.90
46283;DHT22;32017;43.700;11.820;2022-08-05T00:22:03;20.80;99.90
46283;DHT22;32017;43.700;11.820;2022-08-05T00:24:06;20.80;99.90
46283;DHT22;32017;43.700;11.820;2022-08-05T00:26:14;20.90;99.90
46283;DHT22;32017;43.700;11.820;2022-08-05T00:28:17;20.80;99.90
46283;DHT22;32017;43.700;11.820;2022-08-05T00:30:31;20.90;99.90
46283;DHT22;32017;43.700;11.820;2022-08-05T00:32:33;21.00;99.90
46283;DHT22;32017;43.700;11.820;2022-08-05T00:34:35;21.10;99.90
46283;DHT22;32017;43.700;11.820;2022-08-05T00:37:01;21.00;99.90
46283;DHT22;32017;43.700;11.820;2022-08-05T00:39:14;21.00;99.90
46283;DHT22;32017;43.700;11.820;2022-08-05T00:41:28;21.10;99.90
46283;DHT22;32017;43.700;11.820;2022-08-05T00:43:33;21.10;99.90
46283;DHT22;32017;43.700;11.820;2022-08-05T00:46:07;21.10;99.90
46283;DHT22;32017;43.700;11.820;2022-08-05T00:48:11;21.10;99.90
46283;DHT22;32017;43.700;11.820;2022-08-05T00:50:14;21.00;99.90
46283;DHT22;32017;43.700;11.820;2022-08-05T00:52:16;20.90;99.90
46283;DHT22;32017;43.700;11.820;2022-08-05T00:54:20;20.80;99.90
46283;DHT22;32017;43.700;11.820;2022-08-05T00:56:23;20.70;99.90
46283;DHT22;32017;43.700;11.820;2022-08-05T00:58:26;20.60;99.90
46283;DHT22;32017;43.700;11.820;2022-08-05T01:00:30;20.60;99.90
46283;DHT22;32017;43.700;11.820;2022-08-05T01:02:41;20.50;99.90
46283;DHT22;32017;43.700;11.820;2022-08-05T01:04:45;20.50;99.90
46283;DHT22;32017;43.700;11.820;2022-08-05T01:06:52;20.40;99.90
46283;DHT22;32017;43.700;11.820;2022-08-05T01:09:10;20.40;99.90
46283;DHT22;32017;43.700;11.820;2022-08-05T01:11:20;20.40;99.90
46283;DHT22;32017;43.700;11.820;2022-08-05T01:16:02;20.40;99.90
46283;DHT22;32017;43.700;11.820;2022-08-05T01:18:11;20.30;99.90
46283;DHT22;32017;43.700;11.820;2022-08-05T01:22:43;20.40;99.90
46283;DHT22;32017;43.700;11.820;2022-08-05T01:26:55;20.30;99.90
46283;DHT22;32017;43.700;11.820;2022-08-05T01:29:20;20.20;99.90
46283;DHT22;32017;43.700;11.820;2022-08-05T01:33:52;20.20;99.90
46283;DHT22;32017;43.700;11.820;2022-08-05T01:35:57;20.20;99.90
46283;DHT22;32017;43.700;11.820;2022-08-05T01:38:02;20.20;99.90
46283;DHT22;32017;43.700;11.820;2022-08-05T01:40:05;20.20;99.90
46283;DHT22;32017;43.700;11.820;2022-08-05T01:42:10;20.20;99.90
46283;DHT22;32017;43.700;11.820;2022-08-05T01:44:14;20.10;99.90
46283;DHT22;32017;43.700;11.820;2022-08-05T01:46:18;20.10;99.90
46283;DHT22;32017;43.700;11.820;2022-08-05T01:48:44;20.00;99.90
46283;DHT22;32017;43.700;11.820;2022-08-05T01:50:51;20.00;99.90
46283;DHT22;32017;43.700;11.820;2022-08-05T01:52:55;20.20;99.90
46283;DHT22;32017;43.700;11.820;2022-08-05T01:55:01;20.10;99.90
46283;DHT22;32017;43.700;11.820;2022-08-05T01:57:05;20.00;99.90
46283;DHT22;32017;43.700;11.820;2022-08-05T01:59:31;19.90;99.90
46283;DHT22;32017;43.700;11.820;2022-08-05T02:01:35;19.80;99.90
46283;DHT22;32017;43.700;11.820;2022-08-05T02:03:42;19.70;99.90
46283;DHT22;32017;43.700;11.820;2022-08-05T02:05:46;19.70;99.90
46283;DHT22;32017;43.700;11.820;2022-08-05T02:07:52;19.80;99.90
46283;DHT22;32017;43.700;11.820;2022-08-05T02:10:02;19.70;99.90
46283;DHT22;32017;43.700;11.820;2022-08-05T02:12:07;19.70;99.90
46283;DHT22;32017;43.700;11.820;2022-08-05T02:14:12;19.50;99.90
46283;DHT22;32017;43.700;11.820;2022-08-05T02:16:23;19.50;99.90
46283;DHT22;32017;43.700;11.820;2022-08-05T02:18:31;19.50;99.90
46283;DHT22;32017;43.700;11.820;2022-08-05T02:20:56;19.60;99.90
46283;DHT22;32017;43.700;11.820;2022-08-05T02:23:02;19.60;99.90
46283;DHT22;32017;43.700;11.820;2022-08-05T02:25:13;19.40;99.90
46283;DHT22;32017;43.700;11.820;2022-08-05T02:27:18;19.30;99.90
46283;DHT22;32017;43.700;11.820;2022-08-05T02:29:33;19.20;99.90
46283;DHT22;32017;43.700;11.820;2022-08-05T02:31:59;19.20;99.90
46283;DHT22;32017;43.700;11.820;2022-08-05T02:34:13;19.20;99.90
46283;DHT22;32017;43.700;11.820;2022-08-05T02:36:18;19.30;99.90
46283;DHT22;32017;43.700;11.820;2022-08-05T02:38:23;19.30;99.90
46283;DHT22;32017;43.700;11.820;2022-08-05T02:40:28;19.20;99.90
46283;DHT22;32017;43.700;11.820;2022-08-05T02:42:32;19.10;99.90
46283;DHT22;32017;43.700;11.820;2022-08-05T02:44:39;19.10;99.90
46283;DHT22;32017;43.700;11.820;2022-08-05T02:46:44;19.10;99.90
46283;DHT22;32017;43.700;11.820;2022-08-05T02:49:07;19.00;99.90
46283;DHT22;32017;43.700;11.820;2022-08-05T02:51:13;18.80;99.90
46283;DHT22;32017;43.700;11.820;2022-08-05T02:53:16;18.70;99.90
46283;DHT22;32017;43.700;11.820;2022-08-05T02:55:21;18.60;99.90
46283;DHT22;32017;43.700;11.820;2022-08-05T02:57:43;18.70;99.90
46283;DHT22;32017;43.700;11.820;2022-08-05T03:00:06;18.80;99.90
46283;DHT22;32017;43.700;11.820;2022-08-05T03:02:10;18.80;99.90
46283;DHT22;32017;43.700;11.820;2022-08-05T03:04:20;18.80;99.90
46283;DHT22;32017;43.700;11.820;2022-08-05T03:06:26;18.60;99.90
46283;DHT22;32017;43.700;11.820;2022-08-05T03:09:11;18.60;99.90
46283;DHT22;32017;43.700;11.820;2022-08-05T03:11:19;18.50;99.90
46283;DHT22;32017;43.700;11.820;2022-08-05T03:13:42;18.50;99.90
46283;DHT22;32017;43.700;11.820;2022-08-05T03:15:53;18.60;99.90
46283;DHT22;32017;43.700;11.820;2022-08-05T03:17:55;18.60;99.90
46283;DHT22;32017;43.700;11.820;2022-08-05T03:19:59;18.60;99.90
46283;DHT22;32017;43.700;11.820;2022-08-05T03:22:19;18.60;99.90
46283;DHT22;32017;43.700;11.820;2022-08-05T03:24:53;18.70;99.90
46283;DHT22;32017;43.700;11.820;2022-08-05T03:26:57;18.60;99.90
46283;DHT22;32017;43.700;11.820;2022-08-05T03:29:02;18.60;99.90
46283;DHT22;32017;43.700;11.820;2022-08-05T03:31:08;18.60;99.90
46283;DHT22;32017;43.700;11.820;2022-08-05T03:33:10;18.60;99.90
46283;DHT22;32017;43.700;11.820;2022-08-05T03:35:13;18.50;99.90
46283;DHT22;32017;43.700;11.820;2022-08-05T03:37:16;18.60;99.90
46283;DHT22;32017;43.700;11.820;2022-08-05T03:39:25;18.60;99.90
46283;DHT22;32017;43.700;11.820;2022-08-05T03:41:27;18.50;99.90
46283;DHT22;32017;43.700;11.820;2022-08-05T03:43:36;18.50;99.90
46283;DHT22;32017;43.700;11.820;2022-08-05T03:45:59;18.40;99.90
46283;DHT22;32017;43.700;11.820;2022-08-05T03:48:03;18.30;99.90
46283;DHT22;32017;43.700;11.820;2022-08-05T03:50:07;18.30;99.90
46283;DHT22;32017;43.700;11.820;2022-08-05T03:52:17;18.30;99.90
46283;DHT22;32017;43.700;11.820;2022-08-05T03:54:49;18.20;99.90
46283;DHT22;32017;43.700;11.820;2022-08-05T03:57:13;18.30;99.90
46283;DHT22;32017;43.700;11.820;2022-08-05T03:59:20;18.20;99.90
46283;DHT22;32017;43.700;11.820;2022-08-05T04:01:27;18.20;99.90
46283;DHT22;32017;43.700;11.820;2022-08-05T04:03:34;18.30;99.90
46283;DHT22;32017;43.700;11.820;2022-08-05T04:05:39;18.20;99.90
46283;DHT22;32017;43.700;11.820;2022-08-05T04:07:54;18.20;99.90
46283;DHT22;32017;43.700;11.820;2022-08-05T04:10:01;18.20;99.90
46283;DHT22;32017;43.700;11.820;2022-08-05T04:12:04;18.20;99.90
46283;DHT22;32017;43.700;11.820;2022-08-05T04:14:26;18.10;99.90
46283;DHT22;32017;43.700;11.820;2022-08-05T04:16:51;18.10;99.90
46283;DHT22;32017;43.700;11.820;2022-08-05T04:19:13;18.20;99.90
46283;DHT22;32017;43.700;11.820;2022-08-05T04:21:16;18.30;99.90
46283;DHT22;32017;43.700;11.820;2022-08-05T04:23:38;18.10;99.90
46283;DHT22;32017;43.700;11.820;2022-08-05T04:26:02;18.10;99.90
46283;DHT22;32017;43.700;11.820;2022-08-05T04:28:05;18.30;99.90
46283;DHT22;32017;43.700;11.820;2022-08-05T04:30:34;18.30;99.90
46283;DHT22;32017;43.700;11.820;2022-08-05T04:32:36;18.30;99.90
46283;DHT22;32017;43.700;11.820;2022-08-05T04:34:43;18.30;99.90
46283;DHT22;32017;43.700;11.820;2022-08-05T04:36:45;18.20;99.90
46283;DHT22;32017;43.700;11.820;2022-08-05T04:38:51;18.10;99.90
46283;DHT22;32017;43.700;11.820;2022-08-05T04:40:57;18.00;99.90
46283;DHT22;32017;43.700;11.820;2022-08-05T04:42:59;18.00;99.90
46283;DHT22;32017;43.700;11.820;2022-08-05T04:45:03;18.00;99.90
46283;DHT22;32017;43.700;11.820;2022-08-05T04:47:07;17.90;99.90
46283;DHT22;32017;43.700;11.820;2022-08-05T04:49:11;17.90;99.90
46283;DHT22;32017;43.700;11.820;2022-08-05T04:51:35;17.90;99.90
46283;DHT22;32017;43.700;11.820;2022-08-05T04:53:41;17.80;99.90
46283;DHT22;32017;43.700;11.820;2022-08-05T04:55:46;17.80;99.90
46283;DHT22;32017;43.700;11.820;2022-08-05T04:58:09;17.80;99.90
46283;DHT22;32017;43.700;11.820;2022-08-05T05:00:18;17.90;99.90
46283;DHT22;32017;43.700;11.820;2022-08-05T05:02:43;17.80;99.90
46283;DHT22;32017;43.700;11.820;2022-08-05T05:04:47;17.90;99.90
46283;DHT22;32017;43.700;11.820;2022-08-05T05:06:51;18.10;99.90
46283;DHT22;32017;43.700;11.820;2022-08-05T05:08:59;18.20;99.90
46283;DHT22;32017;43.700;11.820;2022-08-05T05:11:03;18.20;99.90
46283;DHT22;32017;43.700;11.820;2022-08-05T05:13:25;18.20;99.90
46283;DHT22;32017;43.700;11.820;2022-08-05T05:15:37;18.30;99.90
46283;DHT22;32017;43.700;11.820;2022-08-05T05:17:59;18.30;99.90
46283;DHT22;32017;43.700;11.820;2022-08-05T05:20:04;18.30;99.90
46283;DHT22;32017;43.700;11.820;2022-08-05T05:22:07;18.30;99.90
46283;DHT22;32017;43.700;11.820;2022-08-05T05:24:26;18.30;99.90
46283;DHT22;32017;43.700;11.820;2022-08-05T05:26:37;18.30;99.90
46283;DHT22;32017;43.700;11.820;2022-08-05T05:28:41;18.40;99.90
46283;DHT22;32017;43.700;11.820;2022-08-05T05:30:47;18.60;99.90
46283;DHT22;32017;43.700;11.820;2022-08-05T05:32:56;18.70;99.90
46283;DHT22;32017;43.700;11.820;2022-08-05T05:35:01;18.80;99.90
46283;DHT22;32017;43.700;11.820;2022-08-05T05:37:04;18.80;99.90
46283;DHT22;32017;43.700;11.820;2022-08-05T05:39:07;18.90;99.90
46283;DHT22;32017;43.700;11.820;2022-08-05T05:41:12;19.00;99.90
46283;DHT22;32017;43.700;11.820;2022-08-05T05:43:14;19.10;99.90
46283;DHT22;32017;43.700;11.820;2022-08-05T05:45:17;19.00;99.90
46283;DHT22;32017;43.700;11.820;2022-08-05T05:47:20;19.10;99.90
46283;DHT22;32017;43.700;11.820;2022-08-05T05:49:24;19.20;99.90
46283;DHT22;32017;43.700;11.820;2022-08-05T05:51:41;19.10;99.90
46283;DHT22;32017;43.700;11.820;2022-08-05T05:53:51;19.00;99.90
46283;DHT22;32017;43.700;11.820;2022-08-05T05:56:01;19.20;99.90
46283;DHT22;32017;43.700;11.820;2022-08-05T05:58:04;19.40;99.90
46283;DHT22;32017;43.700;11.820;2022-08-05T06:00:13;19.70;99.90
46283;DHT22;32017;43.700;11.820;2022-08-05T06:02:16;19.70;99.90
46283;DHT22;32017;43.700;11.820;2022-08-05T06:04:34;20.00;99.90
46283;DHT22;32017;43.700;11.820;2022-08-05T06:06:37;20.20;99.90
46283;DHT22;32017;43.700;11.820;2022-08-05T06:08:40;20.20;99.90
46283;DHT22;32017;43.700;11.820;2022-08-05T06:10:45;20.10;99.90
46283;DHT22;32017;43.700;11.820;2022-08-05T06:12:53;20.30;99.90
46283;DHT22;32017;43.700;11.820;2022-08-05T06:14:59;20.40;99.90
46283;DHT22;32017;43.700;11.820;2022-08-05T06:17:03;20.40;99.90
46283;DHT22;32017;43.700;11.820;2022-08-05T06:19:26;20.50;99.90
46283;DHT22;32017;43.700;11.820;2022-08-05T06:21:39;20.80;99.90
46283;DHT22;32017;43.700;11.820;2022-08-05T06:23:44;21.20;99.90
46283;DHT22;32017;43.700;11.820;2022-08-05T06:25:47;21.50;99.90
46283;DHT22;32017;43.700;11.820;2022-08-05T06:28:12;21.40;99.90
46283;DHT22;32017;43.700;11.820;2022-08-05T06:30:41;21.60;99.90
46283;DHT22;32017;43.700;11.820;2022-08-05T06:32:44;21.80;99.90
46283;DHT22;32017;43.700;11.820;2022-08-05T06:34:58;22.20;99.90
46283;DHT22;32017;43.700;11.820;2022-08-05T06:37:01;22.30;99.90
46283;DHT22;32017;43.700;11.820;2022-08-05T06:39:06;22.50;99.90
46283;DHT22;32017;43.700;11.820;2022-08-05T06:41:11;22.70;99.90
46283;DHT22;32017;43.700;11.820;2022-08-05T06:43:13;22.70;99.90
46283;DHT22;32017;43.700;11.820;2022-08-05T06:45:37;22.90;99.90
46283;DHT22;32017;43.700;11.820;2022-08-05T06:47:45;23.30;99.90
46283;DHT22;32017;43.700;11.820;2022-08-05T06:50:27;23.40;99.90
46283;DHT22;32017;43.700;11.820;2022-08-05T06:52:29;23.30;99.90
46283;DHT22;32017;43.700;11.820;2022-08-05T06:54:39;23.50;99.90
46283;DHT22;32017;43.700;11.820;2022-08-05T06:56:44;23.80;99.90
46283;DHT22;32017;43.700;11.820;2022-08-05T06:58:59;24.20;99.90
46283;DHT22;32017;43.700;11.820;2022-08-05T07:01:04;24.20;99.90
46283;DHT22;32017;43.700;11.820;2022-08-05T07:03:07;24.20;99.90
46283;DHT22;32017;43.700;11.820;2022-08-05T07:05:12;24.10;99.90
46283;DHT22;32017;43.700;11.820;2022-08-05T07:07:17;24.60;99.90
46283;DHT22;32017;43.700;11.820;2022-08-05T07:09:25;24.50;99.90
46283;DHT22;32017;43.700;11.820;2022-08-05T07:11:28;24.40;99.90
46283;DHT22;32017;43.700;11.820;2022-08-05T07:13:32;24.50;99.90
46283;DHT22;32017;43.700;11.820;2022-08-05T07:16:01;24.60;99.90
46283;DHT22;32017;43.700;11.820;2022-08-05T07:18:42;25.00;99.90
46283;DHT22;32017;43.700;11.820;2022-08-05T07:20:47;25.90;99.90
46283;DHT22;32017;43.700;11.820;2022-08-05T07:22:49;25.90;99.90
46283;DHT22;32017;43.700;11.820;2022-08-05T07:24:52;25.90;99.90
46283;DHT22;32017;43.700;11.820;2022-08-05T07:26:55;25.90;99.90
46283;DHT22;32017;43.700;11.820;2022-08-05T07:28:58;26.10;99.90
46283;DHT22;32017;43.700;11.820;2022-08-05T07:31:05;26.10;99.90
46283;DHT22;32017;43.700;11.820;2022-08-05T07:33:08;26.60;99.90
46283;DHT22;32017;43.700;11.820;2022-08-05T07:35:17;26.50;99.90
46283;DHT22;32017;43.700;11.820;2022-08-05T07:37:39;26.70;99.80
46283;DHT22;32017;43.700;11.820;2022-08-05T07:39:44;26.90;99.10
46283;DHT22;32017;43.700;11.820;2022-08-05T07:42:26;27.00;98.90
46283;DHT22;32017;43.700;11.820;2022-08-05T07:44:33;26.70;98.90
46283;DHT22;32017;43.700;11.820;2022-08-05T07:46:39;26.90;99.60
46283;DHT22;32017;43.700;11.820;2022-08-05T07:48:42;26.90;98.80
46283;DHT22;32017;43.700;11.820;2022-08-05T07:51:07;26.70;98.60
46283;DHT22;32017;43.700;11.820;2022-08-05T07:53:31;27.30;99.40
46283;DHT22;32017;43.700;11.820;2022-08-05T07:55:40;27.40;97.90
46283;DHT22;32017;43.700;11.820;2022-08-05T07:57:46;27.40;98.20
46283;DHT22;32017;43.700;11.820;2022-08-05T08:00:04;27.60;97.70
46283;DHT22;32017;43.700;11.820;2022-08-05T08:02:07;27.70;98.10
46283;DHT22;32017;43.700;11.820;2022-08-05T08:04:17;27.80;97.60
46283;DHT22;32017;43.700;11.820;2022-08-05T08:06:38;27.90;97.50
46283;DHT22;32017;43.700;11.820;2022-08-05T08:08:42;28.10;98.20
46283;DHT22;32017;43.700;11.820;2022-08-05T08:10:46;28.20;97.10
46283;DHT22;32017;43.700;11.820;2022-08-05T08:12:49;28.20;96.30
46283;DHT22;32017;43.700;11.820;2022-08-05T08:14:54;28.30;96.70
46283;DHT22;32017;43.700;11.820;2022-08-05T08:16:57;28.40;97.20
46283;DHT22;32017;43.700;11.820;2022-08-05T08:19:00;28.60;96.60
46283;DHT22;32017;43.700;11.820;2022-08-05T08:21:04;28.80;97.30
46283;DHT22;32017;43.700;11.820;2022-08-05T08:23:10;29.10;96.30
46283;DHT22;32017;43.700;11.820;2022-08-05T08:25:33;28.90;95.60
46283;DHT22;32017;43.700;11.820;2022-08-05T08:27:55;28.60;95.50
46283;DHT22;32017;43.700;11.820;2022-08-05T08:29:59;28.80;96.00
46283;DHT22;32017;43.700;11.820;2022-08-05T08:32:07;29.00;96.60
46283;DHT22;32017;43.700;11.820;2022-08-05T08:34:12;29.20;96.20
46283;DHT22;32017;43.700;11.820;2022-08-05T08:36:15;29.20;95.20
46283;DHT22;32017;43.700;11.820;2022-08-05T08:38:42;29.00;95.90
46283;DHT22;32017;43.700;11.820;2022-08-05T08:40:44;29.70;95.90
46283;DHT22;32017;43.700;11.820;2022-08-05T08:42:52;29.50;94.20
46283;DHT22;32017;43.700;11.820;2022-08-05T08:44:56;29.60;95.20
46283;DHT22;32017;43.700;11.820;2022-08-05T08:47:22;30.00;94.20
46283;DHT22;32017;43.700;11.820;2022-08-05T08:49:45;30.30;94.60
46283;DHT22;32017;43.700;11.820;2022-08-05T08:52:13;30.30;93.80
46283;DHT22;32017;43.700;11.820;2022-08-05T08:54:19;30.40;94.60
46283;DHT22;32017;43.700;11.820;2022-08-05T08:56:22;30.30;93.70
46283;DHT22;32017;43.700;11.820;2022-08-05T08:58:28;30.40;92.30
46283;DHT22;32017;43.700;11.820;2022-08-05T09:00:44;30.40;92.60
46283;DHT22;32017;43.700;11.820;2022-08-05T09:02:47;30.50;91.60
46283;DHT22;32017;43.700;11.820;2022-08-05T09:04:53;31.00;92.90
46283;DHT22;32017;43.700;11.820;2022-08-05T09:07:15;31.40;92.10
46283;DHT22;32017;43.700;11.820;2022-08-05T09:09:20;30.80;91.70
46283;DHT22;32017;43.700;11.820;2022-08-05T09:11:25;30.60;91.60
46283;DHT22;32017;43.700;11.820;2022-08-05T09:13:49;30.80;92.10
46283;DHT22;32017;43.700;11.820;2022-08-05T09:15:52;30.70;91.90
46283;DHT22;32017;43.700;11.820;2022-08-05T09:18:07;30.70;92.00
46283;DHT22;32017;43.700;11.820;2022-08-05T09:20:10;30.70;91.90
46283;DHT22;32017;43.700;11.820;2022-08-05T09:22:14;30.90;93.10
46283;DHT22;32017;43.700;11.820;2022-08-05T09:24:36;31.30;91.80
46283;DHT22;32017;43.700;11.820;2022-08-05T09:26:39;31.10;90.90
46283;DHT22;32017;43.700;11.820;2022-08-05T09:28:48;31.40;91.40
46283;DHT22;32017;43.700;11.820;2022-08-05T09:31:11;31.30;90.50
46283;DHT22;32017;43.700;11.820;2022-08-05T09:33:51;31.30;90.10
46283;DHT22;32017;43.700;11.820;2022-08-05T09:38:08;31.30;89.50
46283;DHT22;32017;43.700;11.820;2022-08-05T09:40:38;31.40;90.20
46283;DHT22;32017;43.700;11.820;2022-08-05T09:42:40;31.50;88.70
46283;DHT22;32017;43.700;11.820;2022-08-05T09:44:43;31.90;88.50
46283;DHT22;32017;43.700;11.820;2022-08-05T09:46:46;32.10;89.20
46283;DHT22;32017;43.700;11.820;2022-08-05T09:49:09;31.80;87.70
46283;DHT22;32017;43.700;11.820;2022-08-05T09:51:43;32.20;88.30
46283;DHT22;32017;43.700;11.820;2022-08-05T09:53:47;32.20;86.10
46283;DHT22;32017;43.700;11.820;2022-08-05T09:55:58;32.00;87.20
46283;DHT22;32017;43.700;11.820;2022-08-05T09:58:13;32.30;86.60
46283;DHT22;32017;43.700;11.820;2022-08-05T10:00:18;32.30;85.00
46283;DHT22;32017;43.700;11.820;2022-08-05T10:02:32;32.50;85.90
46283;DHT22;32017;43.700;11.820;2022-08-05T10:04:54;32.40;85.20
46283;DHT22;32017;43.700;11.820;2022-08-05T10:07:03;32.40;84.70
46283;DHT22;32017;43.700;11.820;2022-08-05T10:09:17;32.50;85.60
46283;DHT22;32017;43.700;11.820;2022-08-05T10:11:31;32.40;87.00
46283;DHT22;32017;43.700;11.820;2022-08-05T10:13:41;32.50;82.60
46283;DHT22;32017;43.700;11.820;2022-08-05T10:15:52;32.50;83.70
46283;DHT22;32017;43.700;11.820;2022-08-05T10:20:09;32.70;83.20
46283;DHT22;32017;43.700;11.820;2022-08-05T10:22:13;32.70;81.50
46283;DHT22;32017;43.700;11.820;2022-08-05T10:24:18;33.10;81.60
46283;DHT22;32017;43.700;11.820;2022-08-05T10:26:20;33.20;82.50
46283;DHT22;32017;43.700;11.820;2022-08-05T10:28:25;33.00;80.50
46283;DHT22;32017;43.700;11.820;2022-08-05T10:30:32;32.80;79.60
46283;DHT22;32017;43.700;11.820;2022-08-05T10:32:55;32.80;80.10
46283;DHT22;32017;43.700;11.820;2022-08-05T10:35:04;33.00;80.80
46283;DHT22;32017;43.700;11.820;2022-08-05T10:37:08;33.10;79.00
46283;DHT22;32017;43.700;11.820;2022-08-05T10:39:17;33.40;78.00
46283;DHT22;32017;43.700;11.820;2022-08-05T10:43:48;33.00;79.90
46283;DHT22;32017;43.700;11.820;2022-08-05T10:45:56;33.10;79.80
46283;DHT22;32017;43.700;11.820;2022-08-05T10:50:32;34.00;80.20
46283;DHT22;32017;43.700;11.820;2022-08-05T10:52:54;34.20;79.30
46283;DHT22;32017;43.700;11.820;2022-08-05T10:55:03;34.20;78.00
46283;DHT22;32017;43.700;11.820;2022-08-05T10:57:06;34.10;78.50
46283;DHT22;32017;43.700;11.820;2022-08-05T10:59:08;34.00;78.20
46283;DHT22;32017;43.700;11.820;2022-08-05T11:01:41;34.40;79.50
46283;DHT22;32017;43.700;11.820;2022-08-05T11:06:03;34.50;77.70
46283;DHT22;32017;43.700;11.820;2022-08-05T11:08:06;34.10;78.20
46283;DHT22;32017;43.700;11.820;2022-08-05T11:10:30;33.90;77.20
46283;DHT22;32017;43.700;11.820;2022-08-05T11:14:35;34.40;79.90
46283;DHT22;32017;43.700;11.820;2022-08-05T11:19:23;33.90;79.00
46283;DHT22;32017;43.700;11.820;2022-08-05T11:21:47;34.00;77.20
46283;DHT22;32017;43.700;11.820;2022-08-05T11:23:51;34.30;77.10
46283;DHT22;32017;43.700;11.820;2022-08-05T11:40:16;35.00;72.60
46283;DHT22;32017;43.700;11.820;2022-08-05T11:42:22;35.20;74.90
46283;DHT22;32017;43.700;11.820;2022-08-05T11:44:24;35.00;73.80
46283;DHT22;32017;43.700;11.820;2022-08-05T11:46:58;35.10;74.50
46283;DHT22;32017;43.700;11.820;2022-08-05T11:49:16;35.60;74.20
46283;DHT22;32017;43.700;11.820;2022-08-05T11:51:19;35.20;72.60
46283;DHT22;32017;43.700;11.820;2022-08-05T11:53:47;35.80;75.00
46283;DHT22;32017;43.700;11.820;2022-08-05T11:56:00;35.10;72.20
46283;DHT22;32017;43.700;11.820;2022-08-05T11:58:23;35.30;73.90
46283;DHT22;32017;43.700;11.820;2022-08-05T12:00:30;35.60;72.40
46283;DHT22;32017;43.700;11.820;2022-08-05T12:02:32;35.60;72.40
46283;DHT22;32017;43.700;11.820;2022-08-05T12:04:41;35.80;73.70
46283;DHT22;32017;43.700;11.820;2022-08-05T12:06:45;36.30;73.00
46283;DHT22;32017;43.700;11.820;2022-08-05T12:08:52;36.20;73.20
46283;DHT22;32017;43.700;11.820;2022-08-05T12:10:54;36.40;72.80
46283;DHT22;32017;43.700;11.820;2022-08-05T12:13:02;36.70;72.50
46283;DHT22;32017;43.700;11.820;2022-08-05T12:15:19;36.50;70.80
46283;DHT22;32017;43.700;11.820;2022-08-05T12:17:37;35.80;70.60
46283;DHT22;32017;43.700;11.820;2022-08-05T12:19:58;35.30;70.90
46283;DHT22;32017;43.700;11.820;2022-08-05T12:22:21;35.50;71.10
46283;DHT22;32017;43.700;11.820;2022-08-05T12:24:27;35.40;71.90
46283;DHT22;32017;43.700;11.820;2022-08-05T12:28:34;35.00;71.10
46283;DHT22;32017;43.700;11.820;2022-08-05T12:30:40;34.70;69.50
46283;DHT22;32017;43.700;11.820;2022-08-05T12:33:03;34.90;70.50
46283;DHT22;32017;43.700;11.820;2022-08-05T12:35:08;35.00;69.00
46283;DHT22;32017;43.700;11.820;2022-08-05T12:37:11;34.50;69.80
46283;DHT22;32017;43.700;11.820;2022-08-05T12:39:18;34.40;69.70
46283;DHT22;32017;43.700;11.820;2022-08-05T12:41:22;34.80;69.20
46283;DHT22;32017;43.700;11.820;2022-08-05T12:43:24;34.80;70.50
46283;DHT22;32017;43.700;11.820;2022-08-05T12:45:29;34.80;70.00
46283;DHT22;32017;43.700;11.820;2022-08-05T12:47:44;35.10;70.40
46283;DHT22;32017;43.700;11.820;2022-08-05T12:50:14;35.10;71.50
46283;DHT22;32017;43.700;11.820;2022-08-05T12:52:17;35.00;69.20
46283;DHT22;32017;43.700;11.820;2022-08-05T12:54:29;34.20;70.20
46283;DHT22;32017;43.700;11.820;2022-08-05T12:56:33;34.00;69.20
46283;DHT22;32017;43.700;11.820;2022-08-05T12:59:12;34.30;68.90
46283;DHT22;32017;43.700;11.820;2022-08-05T13:01:15;34.60;71.20
46283;DHT22;32017;43.700;11.820;2022-08-05T13:03:38;34.70;69.90
46283;DHT22;32017;43.700;11.820;2022-08-05T13:05:53;34.60;70.50
46283;DHT22;32017;43.700;11.820;2022-08-05T13:07:57;34.40;70.10
46283;DHT22;32017;43.700;11.820;2022-08-05T13:10:02;34.50;70.00
46283;DHT22;32017;43.700;11.820;2022-08-05T13:12:14;34.60;71.90
46283;DHT22;32017;43.700;11.820;2022-08-05T13:14:19;34.70;69.80
46283;DHT22;32017;43.700;11.820;2022-08-05T13:16:47;34.90;70.70
46283;DHT22;32017;43.700;11.820;2022-08-05T13:18:53;35.00;69.50
46283;DHT22;32017;43.700;11.820;2022-08-05T13:20:58;34.80;71.10
46283;DHT22;32017;43.700;11.820;2022-08-05T13:23:02;34.80;69.90
46283;DHT22;32017;43.700;11.820;2022-08-05T13:25:10;35.00;70.70
46283;DHT22;32017;43.700;11.820;2022-08-05T13:27:24;35.10;69.90
46283;DHT22;32017;43.700;11.820;2022-08-05T13:29:37;35.20;70.20
46283;DHT22;32017;43.700;11.820;2022-08-05T13:31:39;35.60;73.20
46283;DHT22;32017;43.700;11.820;2022-08-05T13:34:06;35.70;69.70
46283;DHT22;32017;43.700;11.820;2022-08-05T13:36:25;35.80;72.10
46283;DHT22;32017;43.700;11.820;2022-08-05T13:38:36;36.10;67.40
46283;DHT22;32017;43.700;11.820;2022-08-05T13:40:43;36.40;69.00
46283;DHT22;32017;43.700;11.820;2022-08-05T13:42:52;36.60;68.90
46283;DHT22;32017;43.700;11.820;2022-08-05T13:44:58;36.70;68.00
46283;DHT22;32017;43.700;11.820;2022-08-05T13:47:00;37.00;66.70
46283;DHT22;32017;43.700;11.820;2022-08-05T13:49:09;37.30;65.90
46283;DHT22;32017;43.700;11.820;2022-08-05T13:51:12;37.60;64.00
46283;DHT22;32017;43.700;11.820;2022-08-05T13:53:15;37.50;63.60
46283;DHT22;32017;43.700;11.820;2022-08-05T13:55:17;37.60;63.60
46283;DHT22;32017;43.700;11.820;2022-08-05T13:57:52;37.70;64.20
46283;DHT22;32017;43.700;11.820;2022-08-05T13:59:55;38.10;62.50
46283;DHT22;32017;43.700;11.820;2022-08-05T14:02:02;37.80;62.70
46283;DHT22;32017;43.700;11.820;2022-08-05T14:04:04;37.80;62.10
46283;DHT22;32017;43.700;11.820;2022-08-05T14:06:27;37.80;63.40
46283;DHT22;32017;43.700;11.820;2022-08-05T14:08:29;38.00;62.60
46283;DHT22;32017;43.700;11.820;2022-08-05T14:10:33;38.10;63.00